Time;durP1;ratioP1;P1;durP2;ratioP2;P2;SDS_P1;SDS_P2;PMS_P1;PMS_P2;Temp;Humidity;BMP_temperature;BMP_pressure;BME280_temperature;BME280_humidity;BME280_pressure;Samples;Min_cycle;Max_cycle;Signal;HPM_P1;HPM_P2
2022/01/24 00:01:08;;;;;;;3.40;2.77;;;2.80;99.90;;;;;;5055021;28;20259;-73
2022/01/24 00:03:35;;;;;;;3.57;3.27;;;2.80;99.90;;;;;;5056532;28;20673;-73
2022/01/24 00:06:02;;;;;;;3.37;3.07;;;2.90;99.90;;;;;;5054689;28;20383;-73
2022/01/24 00:08:31;;;;;;;3.83;3.07;;;2.80;99.90;;;;;;5058607;28;20201;-73
2022/01/24 00:11:05;;;;;;;3.90;3.50;;;2.90;99.90;;;;;;5058555;28;20213;-73
2022/01/24 00:16:23;;;;;;;4.43;3.20;;;2.90;99.90;;;;;;5034076;28;20208;-73
2022/01/24 00:27:04;;;;;;;3.97;3.57;;;2.80;99.90;;;;;;5054942;28;20373;-73
2022/01/24 00:29:31;;;;;;;5.27;3.60;;;2.80;99.90;;;;;;5056303;28;20199;-72
2022/01/24 00:31:58;;;;;;;3.83;3.43;;;2.90;99.90;;;;;;5057012;28;20280;-73
2022/01/24 00:34:25;;;;;;;3.73;3.43;;;2.90;99.90;;;;;;5057530;28;20216;-73
2022/01/24 00:36:53;;;;;;;4.10;3.70;;;2.90;99.90;;;;;;5056408;28;20281;-72
2022/01/24 00:39:20;;;;;;;5.60;3.70;;;2.90;99.90;;;;;;5056965;28;20198;-72
2022/01/24 00:41:57;;;;;;;4.20;3.80;;;2.90;99.90;;;;;;5059138;28;20228;-72
2022/01/24 00:47:19;;;;;;;4.40;3.60;;;2.90;99.90;;;;;;5060167;28;20675;-73
2022/01/24 00:55:11;;;;;;;5.17;3.50;;;2.90;99.90;;;;;;5059612;28;20239;-72
2022/01/24 00:57:37;;;;;;;4.00;3.43;;;2.80;99.90;;;;;;5059382;28;20252;-72
2022/01/24 01:00:07;;;;;;;4.63;3.93;;;2.80;99.90;;;;;;5061682;28;20247;-73
2022/01/24 01:02:33;;;;;;;4.73;3.33;;;2.80;99.90;;;;;;5062419;28;20224;-73
2022/01/24 01:05:17;;;;;;;5.40;4.23;;;2.80;99.90;;;;;;5066075;28;20197;-73
2022/01/24 01:07:55;;;;;;;5.17;3.37;;;2.80;99.90;;;;;;5059718;28;20264;-73
2022/01/24 01:18:46;;;;;;;4.57;3.93;;;2.80;99.90;;;;;;5042674;28;20193;-73
2022/01/24 01:21:14;;;;;;;4.10;3.70;;;2.80;99.90;;;;;;5067390;28;20193;-72
2022/01/24 01:23:47;;;;;;;4.10;3.47;;;2.80;99.90;;;;;;5068809;28;20616;-73
2022/01/24 01:26:22;;;;;;;5.03;4.33;;;2.80;99.90;;;;;;5069238;28;20230;-73
2022/01/24 01:28:54;;;;;;;5.17;3.23;;;2.80;99.90;;;;;;5067448;28;20202;-73
2022/01/24 01:31:33;;;;;;;6.73;3.70;;;2.80;99.90;;;;;;5067743;28;20197;-73
2022/01/24 01:34:08;;;;;;;6.00;3.73;;;2.80;99.90;;;;;;5061099;28;20260;-73
2022/01/24 01:37:03;;;;;;;4.10;3.70;;;2.80;99.90;;;;;;5062810;28;20218;-73
2022/01/24 01:39:46;;;;;;;4.93;3.80;;;2.80;99.90;;;;;;5067407;28;20228;-73
2022/01/24 01:53:46;;;;;;;5.17;4.40;;;2.90;99.90;;;;;;5058418;28;20323;-73
2022/01/24 01:56:13;;;;;;;6.13;4.80;;;2.80;99.90;;;;;;5056998;28;20208;-72
2022/01/24 01:58:40;;;;;;;4.77;4.27;;;2.80;99.90;;;;;;5061733;28;20248;-72
2022/01/24 02:01:07;;;;;;;4.70;4.20;;;2.90;99.90;;;;;;5061832;28;20202;-72
2022/01/24 02:03:35;;;;;;;6.33;4.90;;;2.80;99.90;;;;;;5059625;28;20202;-72
2022/01/24 02:06:01;;;;;;;7.70;5.07;;;2.80;99.90;;;;;;5056399;28;20739;-74
2022/01/24 02:08:31;;;;;;;7.77;5.50;;;2.80;99.90;;;;;;5059274;28;20210;-72
2022/01/24 02:10:58;;;;;;;7.67;5.43;;;2.80;99.90;;;;;;5056066;28;20197;-73
2022/01/24 02:13:26;;;;;;;9.33;5.30;;;2.80;99.90;;;;;;5058912;28;20197;-73
2022/01/24 02:16:01;;;;;;;6.73;4.90;;;2.80;99.90;;;;;;5059938;28;20212;-73
2022/01/24 02:18:33;;;;;;;6.47;4.73;;;2.70;99.90;;;;;;5058795;28;20294;-73
2022/01/24 02:21:11;;;;;;;6.33;4.70;;;2.80;99.90;;;;;;5057940;28;20208;-73
2022/01/24 02:23:45;;;;;;;6.87;4.67;;;2.80;99.90;;;;;;5060864;28;20201;-73
2022/01/24 02:26:18;;;;;;;7.60;4.57;;;2.80;99.90;;;;;;5061390;28;20283;-73
2022/01/24 02:28:57;;;;;;;5.90;4.50;;;2.80;99.90;;;;;;5057828;28;20620;-73
2022/01/24 02:31:42;;;;;;;6.47;4.97;;;2.80;99.90;;;;;;5056859;28;20216;-73
2022/01/24 02:34:28;;;;;;;6.57;4.63;;;2.80;99.90;;;;;;5060562;28;20194;-73
2022/01/24 02:36:56;;;;;;;6.07;4.90;;;2.70;99.90;;;;;;5058678;28;20673;-72
2022/01/24 02:50:37;;;;;;;8.57;4.80;;;2.50;99.90;;;;;;5060589;28;20634;-73
2022/01/24 02:53:04;;;;;;;7.33;5.73;;;2.50;99.90;;;;;;5060732;28;20321;-73
2022/01/24 02:55:32;;;;;;;6.03;5.27;;;2.40;99.90;;;;;;5055439;28;20248;-73
2022/01/24 02:57:59;;;;;;;7.17;5.53;;;2.40;99.90;;;;;;5055855;28;20626;-73
2022/01/24 03:00:25;;;;;;;6.33;5.20;;;2.40;99.90;;;;;;5058462;28;20661;-73
2022/01/24 03:02:52;;;;;;;6.73;5.50;;;2.30;99.90;;;;;;5059315;28;20193;-73
2022/01/24 03:05:19;;;;;;;8.50;5.57;;;2.40;99.90;;;;;;5057569;28;20198;-73
2022/01/24 03:07:45;;;;;;;7.30;5.73;;;2.30;99.90;;;;;;5059536;28;20562;-73
2022/01/24 03:10:23;;;;;;;7.87;5.10;;;2.40;99.90;;;;;;5054593;28;20198;-73
2022/01/24 03:12:59;;;;;;;6.87;5.47;;;2.40;99.90;;;;;;5056924;28;20204;-73
2022/01/24 03:15:26;;;;;;;6.23;5.40;;;2.40;99.90;;;;;;5060553;28;20209;-72
2022/01/24 03:17:52;;;;;;;6.77;5.53;;;2.30;99.90;;;;;;5060236;28;20197;-73
2022/01/24 03:20:19;;;;;;;6.27;5.13;;;2.30;99.90;;;;;;5061628;28;20224;-72
2022/01/24 03:22:46;;;;;;;9.93;5.90;;;2.30;99.90;;;;;;5061456;28;20239;-73
2022/01/24 03:25:13;;;;;;;12.47;5.20;;;2.40;99.90;;;;;;5059982;28;20243;-72
2022/01/24 03:27:39;;;;;;;6.33;4.80;;;2.30;99.90;;;;;;5060198;28;20225;-72
2022/01/24 03:30:09;;;;;;;7.40;4.63;;;2.30;99.90;;;;;;5053663;28;20284;-72
2022/01/24 03:32:35;;;;;;;6.13;4.47;;;2.40;99.90;;;;;;5055598;28;20239;-72
2022/01/24 03:35:07;;;;;;;7.50;4.63;;;2.40;99.90;;;;;;5059953;28;20251;-72
2022/01/24 03:37:33;;;;;;;7.47;4.70;;;2.40;99.90;;;;;;5059819;28;20209;-73
2022/01/24 03:40:00;;;;;;;5.57;4.40;;;2.40;99.90;;;;;;5053414;28;20243;-73
2022/01/24 03:42:27;;;;;;;10.40;4.80;;;2.50;99.90;;;;;;5053264;28;20228;-73
2022/01/24 03:44:58;;;;;;;6.10;4.23;;;2.50;99.90;;;;;;5058933;28;20596;-73
2022/01/24 03:47:42;;;;;;;7.00;4.80;;;2.50;99.90;;;;;;5059110;28;20275;-73
2022/01/24 03:50:16;;;;;;;11.40;4.87;;;2.60;99.90;;;;;;5056211;28;20201;-73
2022/01/24 03:52:44;;;;;;;6.17;4.83;;;2.50;99.90;;;;;;5018599;28;1020269;-72
2022/01/24 03:55:12;;;;;;;9.30;4.23;;;2.50;99.90;;;;;;5059034;28;20202;-73
2022/01/24 03:57:39;;;;;;;6.93;4.40;;;2.60;99.90;;;;;;5058567;28;20197;-74
2022/01/24 04:00:08;;;;;;;5.30;4.13;;;2.60;99.90;;;;;;5057898;28;20205;-73
2022/01/24 04:02:36;;;;;;;10.00;4.73;;;2.60;99.90;;;;;;5053998;28;20198;-73
2022/01/24 04:05:03;;;;;;;5.87;4.40;;;2.60;99.90;;;;;;5062806;28;20259;-73
2022/01/24 04:07:29;;;;;;;6.13;4.73;;;2.60;99.90;;;;;;5060877;28;20225;-73
2022/01/24 04:10:00;;;;;;;6.83;4.30;;;2.60;99.90;;;;;;5062895;28;20676;-73
2022/01/24 04:12:27;;;;;;;8.43;5.10;;;2.60;99.90;;;;;;5062852;28;20202;-73
2022/01/24 04:15:08;;;;;;;7.50;5.50;;;2.60;99.90;;;;;;5057873;28;20194;-73
2022/01/24 04:17:40;;;;;;;5.63;4.63;;;2.60;99.90;;;;;;5059783;28;20202;-72
2022/01/24 04:22:53;;;;;;;6.73;4.70;;;2.60;99.90;;;;;;5067068;28;20224;-72
2022/01/24 04:25:23;;;;;;;6.20;4.53;;;2.60;99.90;;;;;;5066203;28;20205;-73
2022/01/24 04:27:51;;;;;;;6.27;4.60;;;2.60;99.90;;;;;;5064618;28;20316;-73
2022/01/24 04:30:18;;;;;;;6.00;4.93;;;2.60;99.90;;;;;;5058880;28;20209;-73
2022/01/24 04:32:46;;;;;;;7.00;4.70;;;2.60;99.90;;;;;;5062871;28;20246;-72
2022/01/24 04:35:12;;;;;;;6.43;5.57;;;2.60;99.90;;;;;;5059728;28;20534;-72
2022/01/24 04:37:39;;;;;;;6.17;4.70;;;2.60;99.90;;;;;;5063764;28;20206;-72
2022/01/24 04:40:08;;;;;;;5.97;4.63;;;2.60;99.90;;;;;;5066232;28;20198;-72
2022/01/24 04:42:45;;;;;;;8.20;4.80;;;2.70;99.90;;;;;;5066652;28;20194;-73
2022/01/24 04:45:30;;;;;;;7.50;4.80;;;2.70;99.90;;;;;;5066880;28;20649;-72
2022/01/24 04:51:00;;;;;;;6.73;5.10;;;2.70;99.90;;;;;;5065435;28;20203;-73
2022/01/24 04:53:46;;;;;;;6.70;5.20;;;2.70;99.90;;;;;;5047208;28;20236;-73
2022/01/24 04:56:13;;;;;;;7.13;5.73;;;2.70;99.90;;;;;;5064662;28;20204;-72
2022/01/24 04:58:40;;;;;;;7.93;5.53;;;2.70;99.90;;;;;;5064910;28;20205;-72
2022/01/24 05:01:06;;;;;;;6.60;5.67;;;2.70;99.90;;;;;;5065690;28;20206;-73
2022/01/24 05:03:34;;;;;;;6.17;5.07;;;2.70;99.90;;;;;;5063777;28;20198;-73
2022/01/24 05:06:01;;;;;;;6.93;5.13;;;2.70;99.90;;;;;;5066021;28;20206;-73
2022/01/24 05:08:28;;;;;;;6.97;5.60;;;2.70;99.90;;;;;;5064455;28;20247;-74
2022/01/24 05:11:03;;;;;;;8.27;5.37;;;2.70;99.90;;;;;;5063967;28;20194;-73
2022/01/24 05:24:27;;;;;;;6.23;5.53;;;2.70;99.90;;;;;;5056619;28;20202;-73
2022/01/24 05:26:54;;;;;;;7.17;5.27;;;2.70;99.90;;;;;;5056699;28;20620;-73
2022/01/24 05:29:20;;;;;;;6.90;5.63;;;2.80;99.90;;;;;;5061790;28;20194;-72
2022/01/24 05:31:47;;;;;;;8.30;5.50;;;2.70;99.90;;;;;;5057478;28;20251;-72
2022/01/24 05:34:15;;;;;;;8.13;5.30;;;2.80;99.90;;;;;;5056678;28;20202;-72
2022/01/24 05:36:42;;;;;;;12.07;7.07;;;2.80;99.90;;;;;;5056155;28;20198;-72
2022/01/24 05:39:11;;;;;;;10.90;6.83;;;2.70;99.90;;;;;;5061723;28;20228;-73
2022/01/24 05:41:38;;;;;;;9.97;7.30;;;2.70;99.90;;;;;;5056446;28;20229;-72
2022/01/24 05:44:05;;;;;;;11.93;7.07;;;2.80;99.90;;;;;;5056710;28;20198;-72
2022/01/24 05:46:32;;;;;;;10.40;7.27;;;2.80;99.90;;;;;;5056734;28;20194;-72
2022/01/24 05:48:59;;;;;;;14.60;7.00;;;2.70;99.90;;;;;;5056354;28;20235;-73
2022/01/24 05:51:28;;;;;;;9.27;5.43;;;2.70;99.90;;;;;;5055747;28;20264;-72
2022/01/24 05:53:55;;;;;;;7.77;4.80;;;2.70;99.90;;;;;;5055711;28;20654;-72
2022/01/24 05:56:21;;;;;;;9.13;5.27;;;2.80;99.90;;;;;;5055901;28;20725;-72
2022/01/24 05:58:48;;;;;;;9.33;5.70;;;2.80;99.90;;;;;;5055845;28;20207;-72
2022/01/24 06:01:15;;;;;;;7.90;5.57;;;2.80;99.90;;;;;;5056083;28;20245;-72
2022/01/24 06:03:41;;;;;;;8.60;5.07;;;2.80;99.90;;;;;;5056630;28;20195;-72
2022/01/24 06:06:08;;;;;;;7.00;4.53;;;2.80;99.90;;;;;;5055890;28;20207;-72
2022/01/24 06:08:36;;;;;;;8.47;5.07;;;2.80;99.90;;;;;;5055314;28;20717;-73
2022/01/24 06:11:03;;;;;;;11.40;5.57;;;2.80;99.90;;;;;;5055374;28;20688;-73
2022/01/24 06:13:31;;;;;;;11.40;5.23;;;2.80;99.90;;;;;;5056036;28;20201;-73
2022/01/24 06:15:57;;;;;;;7.33;4.60;;;2.90;99.90;;;;;;5056111;28;20654;-73
2022/01/24 06:18:25;;;;;;;6.93;4.77;;;2.90;99.90;;;;;;5055943;28;20609;-73
2022/01/24 06:20:52;;;;;;;9.00;6.10;;;2.80;99.90;;;;;;5055724;28;20251;-73
2022/01/24 06:23:19;;;;;;;6.57;3.90;;;2.80;99.90;;;;;;5055977;28;20199;-78
2022/01/24 06:25:47;;;;;;;6.70;5.67;;;2.80;99.90;;;;;;5055288;28;20688;-73
2022/01/24 06:28:14;;;;;;;6.13;4.33;;;2.80;99.90;;;;;;5055435;28;20222;-73
2022/01/24 06:30:40;;;;;;;7.87;4.40;;;2.80;99.90;;;;;;5055356;28;20197;-72
2022/01/24 06:33:07;;;;;;;9.53;4.93;;;2.80;99.90;;;;;;5057784;28;20251;-72
2022/01/24 06:35:34;;;;;;;6.47;4.80;;;2.80;99.90;;;;;;5058347;28;20673;-74
2022/01/24 06:38:01;;;;;;;6.27;4.50;;;2.80;99.90;;;;;;5055101;28;20665;-74
2022/01/24 06:40:27;;;;;;;6.60;4.07;;;2.80;99.90;;;;;;5056128;28;20293;-75
2022/01/24 06:42:55;;;;;;;5.90;4.77;;;2.80;99.90;;;;;;5055054;28;20203;-74
2022/01/24 06:45:22;;;;;;;7.63;5.23;;;2.80;99.90;;;;;;5054671;28;20248;-74
2022/01/24 06:47:49;;;;;;;6.27;4.67;;;2.80;99.90;;;;;;5055455;28;20221;-73
2022/01/24 06:50:15;;;;;;;4.83;4.23;;;2.80;99.90;;;;;;5055545;28;20194;-73
2022/01/24 06:52:42;;;;;;;5.27;4.40;;;2.80;99.90;;;;;;5058047;28;20284;-72
2022/01/24 06:55:10;;;;;;;7.37;4.57;;;2.80;99.90;;;;;;5058041;28;20290;-72
2022/01/24 06:57:36;;;;;;;5.17;4.33;;;2.80;99.90;;;;;;5058967;28;20736;-73
2022/01/24 07:00:07;;;;;;;6.77;4.53;;;2.80;99.90;;;;;;5057601;28;20715;-74
2022/01/24 07:02:34;;;;;;;5.43;4.40;;;2.80;99.90;;;;;;5056842;28;20251;-73
2022/01/24 07:05:01;;;;;;;6.27;4.10;;;2.80;99.90;;;;;;5056860;28;20201;-72
2022/01/24 07:07:28;;;;;;;5.93;5.03;;;2.90;99.90;;;;;;5056376;28;20535;-73
2022/01/24 07:09:55;;;;;;;6.20;4.80;;;2.80;99.90;;;;;;5057459;28;20229;-74
2022/01/24 07:12:24;;;;;;;9.13;4.73;;;2.90;99.90;;;;;;5057559;28;20197;-73
2022/01/24 07:14:51;;;;;;;5.57;4.70;;;2.80;99.90;;;;;;5060051;28;20229;-75
2022/01/24 07:17:33;;;;;;;7.87;5.03;;;2.90;99.90;;;;;;5060339;28;20224;-74
2022/01/24 07:19:59;;;;;;;6.93;4.90;;;2.90;99.90;;;;;;5058748;28;20205;-75
2022/01/24 07:22:26;;;;;;;7.83;5.20;;;2.90;99.90;;;;;;5056966;28;20247;-74
2022/01/24 07:24:53;;;;;;;5.87;4.73;;;2.90;99.90;;;;;;5054767;28;20201;-74
2022/01/24 07:27:19;;;;;;;5.40;4.90;;;2.90;99.90;;;;;;5054808;28;20269;-76
2022/01/24 07:29:46;;;;;;;5.70;4.60;;;2.90;99.90;;;;;;5058931;28;20256;-74
2022/01/24 07:32:13;;;;;;;8.70;7.23;;;2.90;99.90;;;;;;5054467;28;20252;-75
2022/01/24 07:34:41;;;;;;;7.73;4.67;;;2.90;99.90;;;;;;5052388;28;20206;-74
2022/01/24 07:37:08;;;;;;;6.30;4.83;;;2.90;99.90;;;;;;5052127;28;20273;-74
2022/01/24 07:39:34;;;;;;;5.47;4.87;;;2.90;99.90;;;;;;5052008;28;20259;-73
2022/01/24 07:42:14;;;;;;;6.00;5.40;;;2.90;99.90;;;;;;5051987;28;20198;-75
2022/01/24 07:44:40;;;;;;;5.80;5.20;;;2.90;99.90;;;;;;5051640;28;20689;-75
2022/01/24 07:47:07;;;;;;;8.17;6.23;;;3.00;99.90;;;;;;5052157;28;20206;-75
2022/01/24 07:49:34;;;;;;;6.20;5.00;;;3.00;99.90;;;;;;5051742;28;20401;-75
2022/01/24 07:52:03;;;;;;;6.17;4.53;;;3.00;99.90;;;;;;5051678;28;20238;-74
2022/01/24 07:54:30;;;;;;;8.07;4.63;;;3.00;99.90;;;;;;5052096;28;20538;-74
2022/01/24 07:56:57;;;;;;;7.10;5.53;;;3.00;99.90;;;;;;5051463;28;20287;-74
2022/01/24 07:59:23;;;;;;;6.50;4.77;;;3.00;99.90;;;;;;5051352;28;20247;-75
2022/01/24 08:01:50;;;;;;;8.23;4.90;;;3.00;99.90;;;;;;5052049;28;20202;-74
2022/01/24 08:04:17;;;;;;;7.20;6.33;;;3.00;99.90;;;;;;5051408;28;20284;-74
2022/01/24 08:06:46;;;;;;;9.50;7.47;;;3.00;99.90;;;;;;5051251;28;20216;-74
2022/01/24 08:09:14;;;;;;;9.00;7.20;;;3.00;99.90;;;;;;5052023;28;20582;-74
2022/01/24 08:11:41;;;;;;;9.00;7.60;;;3.00;99.90;;;;;;5051280;28;20236;-74
2022/01/24 08:14:08;;;;;;;12.20;8.37;;;3.00;99.90;;;;;;5052222;28;20227;-75
2022/01/24 08:16:35;;;;;;;10.90;8.20;;;3.10;99.90;;;;;;5052212;28;20205;-75
2022/01/24 08:19:02;;;;;;;10.87;8.20;;;3.10;99.90;;;;;;5052349;28;20217;-74
2022/01/24 08:21:28;;;;;;;15.43;8.87;;;3.10;99.90;;;;;;5052368;28;20198;-74
2022/01/24 08:23:56;;;;;;;15.63;9.80;;;3.10;99.90;;;;;;5057259;28;20206;-74
2022/01/24 08:26:24;;;;;;;14.90;10.87;;;3.10;99.90;;;;;;5051940;28;20228;-74
2022/01/24 08:28:50;;;;;;;20.73;13.40;;;3.10;99.90;;;;;;5051039;28;20309;-75
2022/01/24 08:31:17;;;;;;;16.60;10.67;;;3.10;99.90;;;;;;5051764;28;20658;-74
2022/01/24 08:33:44;;;;;;;14.17;9.57;;;3.20;99.90;;;;;;5050956;28;20696;-75
2022/01/24 08:36:11;;;;;;;13.83;8.33;;;3.20;99.90;;;;;;5051298;28;20661;-75
2022/01/24 08:38:38;;;;;;;11.13;7.07;;;3.10;99.90;;;;;;5051269;28;21043;-75
2022/01/24 08:41:11;;;;;;;8.87;5.40;;;3.20;99.90;;;;;;5050758;28;20202;-73
2022/01/24 08:43:53;;;;;;;7.00;5.60;;;3.20;99.90;;;;;;5053759;28;20206;-75
2022/01/24 08:46:20;;;;;;;5.90;5.30;;;3.20;99.90;;;;;;5051044;28;20297;-75
2022/01/24 08:48:47;;;;;;;7.47;5.03;;;3.20;99.90;;;;;;5052067;28;20282;-75
2022/01/24 08:51:15;;;;;;;6.80;4.97;;;3.10;99.90;;;;;;5053444;28;20612;-75
2022/01/24 08:53:42;;;;;;;5.40;4.90;;;3.20;99.90;;;;;;5054304;28;20695;-73
2022/01/24 08:56:11;;;;;;;5.73;4.30;;;3.20;99.90;;;;;;5072847;28;20201;-74
2022/01/24 08:58:39;;;;;;;5.13;4.70;;;3.20;99.90;;;;;;5072729;28;20198;-73
2022/01/24 09:01:07;;;;;;;5.97;5.07;;;3.20;99.90;;;;;;5074454;28;20195;-73
2022/01/24 09:03:39;;;;;;;7.40;6.10;;;3.20;99.90;;;;;;5074436;28;20193;-73
2022/01/24 09:06:06;;;;;;;6.27;5.67;;;3.20;99.90;;;;;;5077429;28;20258;-73
2022/01/24 09:08:34;;;;;;;6.17;5.37;;;3.20;99.90;;;;;;5077903;28;20217;-73
2022/01/24 09:11:00;;;;;;;7.27;4.60;;;3.30;99.90;;;;;;5077727;28;20651;-73
2022/01/24 09:13:28;;;;;;;5.30;4.80;;;3.30;99.90;;;;;;5077820;28;20194;-73
2022/01/24 09:15:56;;;;;;;6.20;4.40;;;3.20;99.90;;;;;;5078030;28;20208;-73
2022/01/24 09:18:23;;;;;;;6.33;4.60;;;3.20;99.90;;;;;;5081279;28;20225;-73
2022/01/24 09:20:50;;;;;;;5.23;4.70;;;3.30;99.90;;;;;;5079063;28;20205;-73
2022/01/24 09:23:17;;;;;;;7.47;4.93;;;3.30;99.90;;;;;;5076624;28;20202;-73
2022/01/24 09:25:44;;;;;;;6.60;4.63;;;3.30;99.90;;;;;;5076843;28;20603;-73
2022/01/24 09:28:11;;;;;;;7.47;5.57;;;3.30;99.90;;;;;;5068173;28;20657;-73
2022/01/24 09:30:37;;;;;;;9.27;5.73;;;3.30;99.90;;;;;;5056476;28;20273;-73
2022/01/24 09:33:05;;;;;;;8.20;6.53;;;3.30;99.90;;;;;;5056593;28;20201;-73
2022/01/24 09:35:32;;;;;;;9.30;6.17;;;3.30;99.90;;;;;;5056246;28;20198;-73
2022/01/24 09:37:59;;;;;;;12.83;7.07;;;3.40;99.90;;;;;;5056143;28;20211;-74
2022/01/24 09:40:26;;;;;;;9.63;7.47;;;3.30;99.90;;;;;;5055917;28;20711;-74
2022/01/24 09:42:53;;;;;;;12.53;7.20;;;3.40;99.90;;;;;;5055854;28;20256;-73
2022/01/24 09:45:21;;;;;;;9.40;7.37;;;3.40;99.90;;;;;;5056276;28;20659;-73
2022/01/24 09:47:48;;;;;;;8.83;7.37;;;3.50;99.90;;;;;;5055871;28;20236;-73
2022/01/24 09:50:18;;;;;;;10.50;8.73;;;3.40;99.90;;;;;;5056292;28;20224;-73
2022/01/24 09:52:47;;;;;;;11.07;7.47;;;3.50;99.90;;;;;;5055797;28;20260;-73
2022/01/24 09:55:17;;;;;;;11.67;7.27;;;3.50;99.90;;;;;;5055873;28;20222;-73
2022/01/24 09:57:47;;;;;;;11.17;6.97;;;3.50;99.90;;;;;;5055654;28;20256;-73
2022/01/24 10:00:17;;;;;;;7.83;6.27;;;3.50;99.90;;;;;;5055690;28;20206;-73
2022/01/24 10:02:46;;;;;;;9.23;6.80;;;3.40;99.90;;;;;;5055962;28;20199;-74
2022/01/24 10:05:18;;;;;;;10.10;7.70;;;3.40;99.90;;;;;;5055521;28;20258;-72
2022/01/24 10:07:54;;;;;;;12.03;8.03;;;3.40;99.90;;;;;;5055550;28;20210;-72
2022/01/24 10:10:33;;;;;;;9.63;6.80;;;3.40;99.90;;;;;;5055581;28;20229;-73
2022/01/24 10:16:25;;;;;;;9.67;7.03;;;3.40;99.90;;;;;;5054577;28;20270;-73
2022/01/24 10:19:04;;;;;;;6.90;6.20;;;3.50;99.90;;;;;;5055347;28;20261;-74
2022/01/24 10:21:37;;;;;;;8.53;5.97;;;3.50;99.90;;;;;;5055376;28;20201;-73
2022/01/24 10:24:04;;;;;;;8.17;6.30;;;3.50;99.90;;;;;;5055081;28;20716;-73
2022/01/24 10:26:31;;;;;;;7.33;6.17;;;3.50;99.90;;;;;;5055331;28;20203;-73
2022/01/24 10:28:58;;;;;;;9.97;6.67;;;3.50;99.90;;;;;;5055152;28;20264;-73
2022/01/24 10:31:28;;;;;;;8.93;6.40;;;3.50;99.90;;;;;;5055635;28;20204;-73
2022/01/24 10:34:04;;;;;;;7.80;6.03;;;3.60;99.90;;;;;;5055507;28;20193;-74
2022/01/24 10:36:41;;;;;;;7.93;6.47;;;3.50;99.90;;;;;;5055576;28;20207;-74
2022/01/24 10:39:14;;;;;;;8.07;6.93;;;3.60;99.90;;;;;;5056157;28;20293;-73
2022/01/24 10:41:56;;;;;;;8.23;6.23;;;3.60;99.90;;;;;;5055209;28;20195;-73
2022/01/24 10:44:30;;;;;;;8.57;6.60;;;3.70;99.90;;;;;;5054886;28;20204;-73
2022/01/24 10:47:12;;;;;;;9.70;7.17;;;3.70;99.90;;;;;;5054902;28;20204;-74
2022/01/24 10:49:39;;;;;;;9.87;5.90;;;3.70;99.90;;;;;;5055526;28;20228;-73
2022/01/24 10:52:12;;;;;;;9.63;7.47;;;3.80;99.90;;;;;;5055182;28;20230;-73
2022/01/24 10:54:39;;;;;;;11.37;8.37;;;3.80;99.90;;;;;;5055009;28;20204;-74
2022/01/24 10:57:06;;;;;;;8.27;6.97;;;3.90;99.90;;;;;;5054860;28;20201;-74
2022/01/24 10:59:36;;;;;;;13.40;7.83;;;3.80;99.90;;;;;;5054897;28;20197;-74
2022/01/24 11:02:03;;;;;;;15.57;7.30;;;3.90;99.90;;;;;;5055175;28;20534;-73
2022/01/24 11:04:33;;;;;;;6.97;5.47;;;3.90;99.90;;;;;;5055145;28;20200;-74
2022/01/24 11:07:03;;;;;;;8.70;5.80;;;3.80;99.90;;;;;;5056301;28;20204;-74
2022/01/24 11:09:32;;;;;;;8.80;6.47;;;3.90;99.90;;;;;;5059481;28;20237;-74
2022/01/24 11:12:05;;;;;;;7.07;5.13;;;3.80;99.90;;;;;;5055135;28;20203;-74
2022/01/24 11:14:32;;;;;;;7.00;6.30;;;3.90;99.90;;;;;;5055429;28;20619;-74
2022/01/24 11:17:00;;;;;;;7.80;6.47;;;3.90;99.90;;;;;;5055085;28;20248;-74
2022/01/24 11:19:32;;;;;;;8.80;6.77;;;4.00;99.90;;;;;;5054935;28;20205;-74
2022/01/24 11:22:01;;;;;;;9.10;7.13;;;4.00;99.90;;;;;;5054759;28;20211;-73
2022/01/24 11:24:37;;;;;;;9.37;7.63;;;3.90;99.90;;;;;;5054746;28;20209;-73
2022/01/24 11:27:06;;;;;;;11.00;7.50;;;4.10;99.90;;;;;;5054864;28;20239;-73
2022/01/24 11:29:34;;;;;;;10.70;7.70;;;4.10;99.90;;;;;;5054354;28;20225;-73
2022/01/24 11:32:11;;;;;;;8.53;7.57;;;4.20;99.90;;;;;;5056390;28;20204;-73
2022/01/24 11:34:40;;;;;;;9.73;7.13;;;4.20;99.90;;;;;;5058206;28;20247;-75
2022/01/24 11:37:08;;;;;;;9.30;7.07;;;4.20;99.90;;;;;;5057603;28;20194;-73
2022/01/24 11:39:36;;;;;;;13.00;7.60;;;4.20;99.90;;;;;;5059125;28;20201;-73
2022/01/24 11:42:03;;;;;;;7.83;6.77;;;4.20;99.90;;;;;;5058831;28;20612;-74
2022/01/24 11:44:47;;;;;;;11.97;7.80;;;4.30;99.90;;;;;;5059669;28;20243;-74
2022/01/24 11:47:22;;;;;;;10.80;7.10;;;4.30;99.90;;;;;;5059116;28;20216;-73
2022/01/24 11:49:52;;;;;;;12.63;7.63;;;4.30;99.90;;;;;;5057252;28;20318;-74
2022/01/24 11:52:19;;;;;;;8.80;7.37;;;4.30;99.90;;;;;;5061111;28;20225;-74
2022/01/24 11:54:51;;;;;;;11.33;7.20;;;4.30;99.90;;;;;;5060652;28;20232;-74
2022/01/24 11:57:25;;;;;;;8.57;7.40;;;4.30;99.90;;;;;;5060836;28;20217;-74
2022/01/24 12:00:16;;;;;;;8.07;7.20;;;4.20;99.90;;;;;;5058912;28;20194;-74
2022/01/24 12:02:44;;;;;;;10.27;6.60;;;4.30;99.90;;;;;;5060230;28;20205;-73
2022/01/24 12:05:13;;;;;;;11.17;6.53;;;4.30;99.90;;;;;;5055357;28;20200;-74
2022/01/24 12:07:45;;;;;;;7.73;6.40;;;4.30;99.90;;;;;;5052083;28;20209;-74
2022/01/24 12:10:44;;;;;;;7.70;6.03;;;4.40;99.90;;;;;;5052071;28;20259;-75
2022/01/24 12:13:20;;;;;;;7.63;6.13;;;4.40;99.90;;;;;;5051978;28;20216;-74
2022/01/24 12:16:07;;;;;;;8.83;6.93;;;4.40;99.90;;;;;;5051333;28;20213;-73
2022/01/24 12:18:50;;;;;;;9.90;6.70;;;4.50;99.90;;;;;;5051796;28;20193;-73
2022/01/24 12:21:18;;;;;;;6.23;5.63;;;4.50;99.90;;;;;;5052220;28;20209;-73
2022/01/24 12:23:46;;;;;;;9.27;5.53;;;4.50;99.90;;;;;;5051855;28;20212;-74
2022/01/24 12:26:25;;;;;;;12.97;5.80;;;4.60;99.90;;;;;;5052994;28;20190;-74
2022/01/24 12:28:57;;;;;;;9.77;5.70;;;4.60;99.90;;;;;;5053589;28;20740;-74
2022/01/24 12:31:29;;;;;;;10.53;6.13;;;4.60;99.90;;;;;;5053525;28;20610;-72
2022/01/24 12:34:08;;;;;;;7.00;5.17;;;4.60;99.90;;;;;;5058873;28;20197;-72
2022/01/24 12:37:00;;;;;;;6.40;4.90;;;4.60;99.90;;;;;;5061613;28;20267;-74
2022/01/24 12:39:32;;;;;;;5.40;4.83;;;4.60;99.90;;;;;;5055332;28;20201;-72
2022/01/24 12:42:02;;;;;;;7.47;4.80;;;4.60;99.90;;;;;;5065970;28;20202;-73
2022/01/24 12:47:20;;;;;;;9.03;5.60;;;4.60;99.90;;;;;;5066005;28;20200;-74
2022/01/24 12:49:49;;;;;;;5.93;4.60;;;4.80;99.90;;;;;;5063562;28;20275;-74
2022/01/24 12:52:18;;;;;;;5.87;4.50;;;4.80;99.90;;;;;;5060215;28;20317;-73
2022/01/24 12:54:47;;;;;;;8.83;4.53;;;4.70;99.90;;;;;;5057904;28;20200;-72
2022/01/24 12:57:16;;;;;;;8.20;5.70;;;4.60;99.90;;;;;;5060332;28;20202;-74
2022/01/24 12:59:54;;;;;;;6.90;4.97;;;4.60;99.90;;;;;;5061019;28;20210;-73
2022/01/24 13:02:26;;;;;;;6.93;5.60;;;4.60;99.90;;;;;;5057358;28;20228;-73
2022/01/24 13:05:00;;;;;;;10.43;6.00;;;4.70;99.90;;;;;;5057603;28;20217;-74
2022/01/24 13:07:30;;;;;;;9.63;5.70;;;4.60;99.90;;;;;;5057274;28;20217;-73
2022/01/24 13:10:03;;;;;;;7.43;4.60;;;4.70;99.90;;;;;;5056131;28;20225;-73
2022/01/24 13:12:30;;;;;;;8.20;5.70;;;4.70;99.90;;;;;;5057217;28;20348;-74
2022/01/24 13:15:00;;;;;;;8.70;5.10;;;4.80;99.90;;;;;;5056586;28;20204;-76
2022/01/24 13:23:23;;;;;;;7.67;5.13;;;4.90;99.90;;;;;;5020616;28;20247;-73
2022/01/24 13:25:50;;;;;;;9.73;5.27;;;4.90;99.90;;;;;;5056770;28;20224;-74
2022/01/24 13:28:19;;;;;;;10.20;5.80;;;4.90;99.90;;;;;;5056562;28;20197;-74
2022/01/24 13:30:48;;;;;;;15.00;5.37;;;4.80;99.90;;;;;;5056324;28;20318;-74
2022/01/24 13:33:19;;;;;;;14.13;10.13;;;4.80;99.90;;;;;;5056580;28;20205;-73
2022/01/24 13:35:48;;;;;;;8.63;5.73;;;4.70;99.90;;;;;;5056154;28;20202;-74
2022/01/24 13:38:17;;;;;;;8.53;5.77;;;4.60;99.90;;;;;;5056431;28;20209;-73
2022/01/24 13:40:52;;;;;;;9.63;6.03;;;4.60;99.90;;;;;;5056278;28;20198;-74
2022/01/24 13:43:30;;;;;;;11.10;6.00;;;4.70;99.90;;;;;;5056463;28;20207;-74
2022/01/24 13:45:57;;;;;;;8.63;5.40;;;4.60;99.90;;;;;;5056130;28;20247;-73
2022/01/24 13:48:26;;;;;;;9.80;5.13;;;4.60;99.90;;;;;;5055978;28;20197;-74
2022/01/24 13:50:54;;;;;;;8.80;5.20;;;4.60;99.90;;;;;;5055875;28;20233;-73
2022/01/24 13:53:35;;;;;;;9.37;5.33;;;4.50;99.90;;;;;;5061163;28;20259;-73
2022/01/24 13:56:20;;;;;;;15.93;6.37;;;4.50;99.90;;;;;;5056071;28;20661;-73
2022/01/24 13:59:24;;;;;;;7.97;5.27;;;4.50;99.90;;;;;;5055775;28;20208;-73
2022/01/24 14:01:56;;;;;;;6.00;4.80;;;4.50;99.90;;;;;;5056005;28;20228;-73
2022/01/24 14:04:35;;;;;;;10.73;5.53;;;4.50;99.90;;;;;;5055939;28;20254;-74
2022/01/24 14:07:03;;;;;;;8.07;5.73;;;4.40;99.90;;;;;;5056211;28;20284;-73
2022/01/24 14:09:36;;;;;;;10.83;5.57;;;4.40;99.90;;;;;;5056121;28;20202;-73
2022/01/24 14:12:05;;;;;;;7.80;5.50;;;4.50;99.90;;;;;;5056678;28;20251;-74
2022/01/24 14:14:41;;;;;;;8.77;6.43;;;4.40;99.90;;;;;;5056375;28;20607;-73
2022/01/24 14:17:21;;;;;;;9.27;6.07;;;4.50;99.90;;;;;;5056355;28;20202;-73
2022/01/24 14:19:57;;;;;;;9.27;5.43;;;4.40;99.90;;;;;;5057471;28;20203;-74
2022/01/24 14:22:24;;;;;;;7.13;5.70;;;4.40;99.90;;;;;;5062016;28;20204;-74
2022/01/24 14:24:57;;;;;;;7.27;5.60;;;4.50;99.90;;;;;;5059282;28;20254;-74
2022/01/24 14:27:39;;;;;;;9.50;5.90;;;4.40;99.90;;;;;;5075099;28;20238;-74
2022/01/24 14:30:08;;;;;;;8.03;5.67;;;4.50;99.90;;;;;;5075025;28;20228;-74